createdAt,value
2022-10-30T00:00:05.704Z,19.10
2022-10-30T00:02:39.108Z,19.10
2022-10-30T00:05:06.628Z,19.10
2022-10-30T00:07:34.209Z,19.10
2022-10-30T00:10:01.296Z,19.10
2022-10-30T00:12:28.343Z,19.10
2022-10-30T00:14:56.415Z,19.10
2022-10-30T00:17:23.638Z,19.10
2022-10-30T00:19:50.562Z,19.10
2022-10-30T00:22:17.726Z,19.10
2022-10-30T00:24:44.836Z,19.00
2022-10-30T00:27:11.879Z,19.00
2022-10-30T00:29:38.899Z,19.00
2022-10-30T00:32:06.001Z,19.00
2022-10-30T00:34:33.206Z,19.00
2022-10-30T00:37:00.137Z,19.00
2022-10-30T00:39:27.211Z,19.00
2022-10-30T00:41:54.880Z,19.00
2022-10-30T00:44:45.250Z,19.00
2022-10-30T00:47:40.785Z,18.90
2022-10-30T00:50:19.478Z,19.00
2022-10-30T00:52:57.085Z,18.90
2022-10-30T00:55:32.309Z,18.90
2022-10-30T00:58:03.572Z,18.90
2022-10-30T01:00:31.192Z,18.90
2022-10-30T01:02:59.061Z,18.90
2022-10-30T01:05:32.200Z,18.90
2022-10-30T01:07:59.667Z,18.90
2022-10-30T01:10:27.094Z,18.90
2022-10-30T01:12:56.442Z,18.90
2022-10-30T01:15:35.859Z,18.90
2022-10-30T01:18:41.535Z,18.80
2022-10-30T01:21:26.666Z,18.80
2022-10-30T01:24:26.707Z,18.80
2022-10-30T01:27:15.669Z,18.80
2022-10-30T01:30:08.702Z,18.70
2022-10-30T01:32:53.612Z,18.70
2022-10-30T01:35:49.047Z,18.70
2022-10-30T01:38:39.604Z,18.70
2022-10-30T01:41:06.818Z,18.70
2022-10-30T01:43:35.348Z,18.60
2022-10-30T01:46:21.259Z,18.60
2022-10-30T01:49:10.931Z,18.60
2022-10-30T01:51:51.764Z,18.60
2022-10-30T01:54:45.550Z,18.60
2022-10-30T01:57:27.264Z,18.50
2022-10-30T02:00:00.161Z,18.50
2022-10-30T02:02:27.456Z,18.50
2022-10-30T02:04:55.781Z,18.40
2022-10-30T02:07:23.013Z,18.40
2022-10-30T02:09:53.796Z,18.50
2022-10-30T02:12:22.027Z,18.40
2022-10-30T02:14:54.727Z,18.40
2022-10-30T02:17:22.090Z,18.40
2022-10-30T02:19:50.215Z,18.40
2022-10-30T02:22:18.365Z,18.40
2022-10-30T02:24:45.779Z,18.40
2022-10-30T02:27:13.864Z,18.40
2022-10-30T02:29:40.950Z,18.40
2022-10-30T02:32:08.110Z,18.40
2022-10-30T02:34:36.879Z,18.40
2022-10-30T02:37:03.990Z,18.40
2022-10-30T02:39:31.282Z,18.40
2022-10-30T02:41:58.424Z,18.40
2022-10-30T02:44:25.400Z,18.40
2022-10-30T02:46:52.366Z,18.40
2022-10-30T02:49:19.383Z,18.40
2022-10-30T02:51:46.587Z,18.40
2022-10-30T02:54:13.636Z,18.30
2022-10-30T02:56:41.645Z,18.30
2022-10-30T02:59:08.835Z,18.30
2022-10-30T03:01:35.940Z,18.30
2022-10-30T03:04:04.150Z,18.30
2022-10-30T03:06:31.230Z,18.30
2022-10-30T03:08:59.110Z,18.30
2022-10-30T03:11:26.392Z,18.30
2022-10-30T03:13:55.646Z,18.20
2022-10-30T03:16:25.074Z,18.20
2022-10-30T03:18:52.859Z,18.20
2022-10-30T03:21:24.160Z,18.20
2022-10-30T03:23:51.670Z,18.20
2022-10-30T03:26:20.682Z,18.20
2022-10-30T03:29:05.445Z,18.20
2022-10-30T03:31:33.158Z,18.20
2022-10-30T03:34:10.399Z,18.20
2022-10-30T03:36:37.478Z,18.20
2022-10-30T03:39:04.973Z,18.20
2022-10-30T03:41:33.312Z,18.20
2022-10-30T03:44:06.755Z,18.20
2022-10-30T03:46:34.047Z,18.10
2022-10-30T03:49:15.805Z,18.20
2022-10-30T03:51:43.470Z,18.10
2022-10-30T03:54:10.680Z,18.10
2022-10-30T03:56:40.519Z,18.10
2022-10-30T03:59:13.850Z,18.10
2022-10-30T04:01:43.341Z,18.10
2022-10-30T04:04:10.501Z,18.10
2022-10-30T04:06:37.394Z,18.10
2022-10-30T04:09:04.975Z,18.10
2022-10-30T04:11:37.232Z,18.10
2022-10-30T04:14:04.409Z,18.10
2022-10-30T04:16:32.740Z,18.10
2022-10-30T04:19:01.377Z,18.10
2022-10-30T04:21:28.436Z,18.20
2022-10-30T04:23:57.400Z,18.10
2022-10-30T04:26:28.206Z,18.20
2022-10-30T04:28:55.252Z,18.20
2022-10-30T04:31:22.230Z,18.20
2022-10-30T04:33:50.947Z,18.20
2022-10-30T04:36:18.689Z,18.20
2022-10-30T04:38:46.266Z,18.20
2022-10-30T04:41:13.685Z,18.20
2022-10-30T04:43:52.172Z,18.20
2022-10-30T04:46:19.327Z,18.20
2022-10-30T04:48:46.397Z,18.20
2022-10-30T04:51:14.302Z,18.10
2022-10-30T04:53:42.372Z,18.10
2022-10-30T04:56:12.827Z,18.10
2022-10-30T04:58:40.798Z,18.10
2022-10-30T05:01:09.297Z,18.00
2022-10-30T05:03:37.666Z,18.00
2022-10-30T05:06:25.674Z,18.00
2022-10-30T05:08:53.527Z,18.00
2022-10-30T05:11:34.350Z,18.00
2022-10-30T05:14:01.253Z,17.90
2022-10-30T05:16:28.311Z,17.90
2022-10-30T05:18:58.604Z,17.90
2022-10-30T05:21:26.940Z,17.80
2022-10-30T05:23:54.455Z,17.80
2022-10-30T05:26:23.079Z,17.80
2022-10-30T05:28:51.594Z,17.80
2022-10-30T05:31:19.217Z,17.70
2022-10-30T05:34:09.318Z,17.70
2022-10-30T05:36:38.900Z,17.70
2022-10-30T05:39:06.331Z,17.60
2022-10-30T05:41:37.008Z,17.60
2022-10-30T05:44:04.475Z,17.60
2022-10-30T05:46:33.141Z,17.60
2022-10-30T05:49:11.628Z,17.50
2022-10-30T05:51:40.574Z,17.50
2022-10-30T05:54:11.223Z,17.50
2022-10-30T05:56:47.221Z,17.50
2022-10-30T05:59:14.260Z,17.40
2022-10-30T06:04:12.825Z,17.40
2022-10-30T06:06:39.826Z,17.40
2022-10-30T06:09:07.877Z,17.40
2022-10-30T06:11:43.385Z,17.40
2022-10-30T06:14:11.672Z,17.40
2022-10-30T06:16:45.822Z,17.40
2022-10-30T06:19:31.610Z,17.40
2022-10-30T06:22:11.333Z,17.40
2022-10-30T06:24:46.909Z,17.40
2022-10-30T06:27:37.322Z,17.40
2022-10-30T06:30:04.738Z,17.40
2022-10-30T06:32:31.788Z,17.40
2022-10-30T06:35:02.460Z,17.40
2022-10-30T06:37:31.299Z,17.40
2022-10-30T06:40:02.663Z,17.50
2022-10-30T06:42:51.047Z,17.50
2022-10-30T06:45:29.176Z,17.60
2022-10-30T06:47:56.919Z,17.60
2022-10-30T06:50:24.709Z,17.70
2022-10-30T06:52:54.898Z,17.70
2022-10-30T06:55:23.341Z,17.70
2022-10-30T06:58:10.672Z,17.80
2022-10-30T07:01:01.635Z,17.80
2022-10-30T07:03:47.493Z,17.80
2022-10-30T07:06:14.750Z,17.90
2022-10-30T07:08:42.901Z,17.90
2022-10-30T07:11:13.029Z,17.90
2022-10-30T07:13:58.951Z,17.90
2022-10-30T07:16:48.107Z,17.90
2022-10-30T07:19:16.131Z,18.00
2022-10-30T07:21:44.119Z,18.00
2022-10-30T07:24:11.328Z,18.00
2022-10-30T07:26:50.492Z,18.00
2022-10-30T07:29:31.634Z,18.10
2022-10-30T07:32:13.644Z,18.10
2022-10-30T07:34:52.175Z,18.10
2022-10-30T07:37:48.773Z,18.20
2022-10-30T07:40:17.442Z,18.40
2022-10-30T07:43:01.916Z,18.50
2022-10-30T07:45:38.135Z,18.80
2022-10-30T07:48:23.862Z,19.00
2022-10-30T07:51:15.506Z,19.40
2022-10-30T07:53:43.096Z,19.70
2022-10-30T07:56:10.329Z,19.90
2022-10-30T07:58:52.750Z,20.10
2022-10-30T08:01:41.016Z,20.30
2022-10-30T08:04:21.258Z,20.40
2022-10-30T08:06:48.356Z,20.60
2022-10-30T08:09:15.460Z,20.60
2022-10-30T08:11:43.807Z,20.70
2022-10-30T08:14:10.952Z,20.70
2022-10-30T08:16:37.942Z,20.70
2022-10-30T08:19:04.986Z,20.80
2022-10-30T08:21:32.132Z,20.80
2022-10-30T08:24:04.022Z,20.90
2022-10-30T08:26:33.408Z,20.90
2022-10-30T08:29:00.628Z,20.90
2022-10-30T08:31:29.823Z,21.00
2022-10-30T08:34:03.055Z,21.10
2022-10-30T08:36:42.790Z,21.40
2022-10-30T08:39:12.377Z,21.80
2022-10-30T08:41:44.799Z,22.20
2022-10-30T08:44:12.785Z,22.70
2022-10-30T08:46:58.324Z,23.30
2022-10-30T08:49:25.577Z,23.80
2022-10-30T08:51:56.198Z,24.40
2022-10-30T08:54:23.083Z,25.00
2022-10-30T08:56:50.754Z,25.40
2022-10-30T08:59:21.097Z,25.90
2022-10-30T09:01:51.251Z,26.20
2022-10-30T09:04:18.643Z,26.60
2022-10-30T09:06:54.352Z,26.90
2022-10-30T09:09:40.200Z,27.20
2022-10-30T09:12:08.534Z,27.40
2022-10-30T09:14:41.591Z,27.60
2022-10-30T09:17:10.532Z,27.80
2022-10-30T09:19:38.630Z,28.00
2022-10-30T09:22:08.280Z,28.20
2022-10-30T09:24:40.312Z,28.30
2022-10-30T09:27:45.668Z,28.40
2022-10-30T09:30:15.336Z,28.60
2022-10-30T09:32:44.981Z,28.60
2022-10-30T09:35:16.713Z,28.70
2022-10-30T09:37:45.034Z,28.60
2022-10-30T09:40:40.119Z,28.60
2022-10-30T09:44:26.705Z,28.60
2022-10-30T09:47:23.600Z,28.60
2022-10-30T09:50:12.148Z,28.60
2022-10-30T09:52:54.433Z,28.70
2022-10-30T09:55:40.372Z,28.90
2022-10-30T09:58:10.301Z,28.90
2022-10-30T10:00:46.157Z,29.00
2022-10-30T10:03:47.600Z,28.90
2022-10-30T10:06:35.799Z,28.80
2022-10-30T10:09:20.565Z,28.70
2022-10-30T10:12:35.106Z,28.70
2022-10-30T10:15:11.508Z,28.70
2022-10-30T10:17:42.098Z,28.70
2022-10-30T10:20:30.538Z,28.70
2022-10-30T10:23:00.166Z,28.90
2022-10-30T10:25:30.490Z,29.00
2022-10-30T10:28:29.010Z,29.20
2022-10-30T10:31:21.266Z,29.30
2022-10-30T10:34:16.434Z,29.30
2022-10-30T10:37:09.746Z,29.20
2022-10-30T10:40:14.562Z,29.00
2022-10-30T10:43:13.761Z,28.90
2022-10-30T10:45:40.877Z,28.90
2022-10-30T10:48:26.301Z,28.90
2022-10-30T10:50:57.535Z,29.00
2022-10-30T10:53:33.906Z,29.20
2022-10-30T10:56:01.651Z,29.30
2022-10-30T10:58:31.722Z,29.40
2022-10-30T11:00:59.649Z,29.50
2022-10-30T11:03:48.522Z,29.50
2022-10-30T11:06:28.921Z,29.60
2022-10-30T11:09:14.467Z,29.80
2022-10-30T11:11:41.672Z,29.90
2022-10-30T11:14:28.451Z,29.90
2022-10-30T11:17:13.580Z,30.10
2022-10-30T11:19:40.610Z,30.20
2022-10-30T11:22:28.636Z,30.20
2022-10-30T11:24:55.821Z,30.30
2022-10-30T11:27:30.818Z,30.30
2022-10-30T11:30:02.287Z,30.20
2022-10-30T11:32:32.332Z,30.20
2022-10-30T11:35:12.620Z,30.10
2022-10-30T11:37:42.276Z,30.00
2022-10-30T11:40:12.444Z,29.90
2022-10-30T11:43:02.156Z,29.90
2022-10-30T11:45:31.544Z,29.70
2022-10-30T11:48:02.732Z,29.60
2022-10-30T11:50:32.547Z,29.50
2022-10-30T11:53:16.595Z,29.40
2022-10-30T11:55:48.636Z,29.30
2022-10-30T11:58:46.548Z,29.20
2022-10-30T12:01:23.715Z,29.00
2022-10-30T12:03:51.897Z,28.90
2022-10-30T12:06:25.304Z,28.80
2022-10-30T12:09:15.803Z,28.70
2022-10-30T12:11:44.607Z,28.60
2022-10-30T12:17:20.595Z,28.30
2022-10-30T12:19:54.051Z,28.20
2022-10-30T12:22:35.320Z,28.10
2022-10-30T12:25:06.908Z,28.00
2022-10-30T12:27:38.346Z,27.90
2022-10-30T12:30:25.394Z,27.90
2022-10-30T12:36:21.306Z,27.70
2022-10-30T12:39:05.427Z,27.70
2022-10-30T12:41:45.051Z,27.60
2022-10-30T12:44:30.782Z,27.60
2022-10-30T12:47:21.035Z,27.50
2022-10-30T12:49:52.557Z,27.40
2022-10-30T12:52:24.730Z,27.30
2022-10-30T12:54:57.885Z,27.30
2022-10-30T12:57:28.701Z,27.20
2022-10-30T13:00:10.060Z,27.20
2022-10-30T13:02:50.689Z,27.10
2022-10-30T13:05:31.608Z,27.10
2022-10-30T13:08:17.234Z,27.00
2022-10-30T13:10:50.814Z,27.00
2022-10-30T13:13:24.640Z,26.90
2022-10-30T13:15:55.130Z,26.90
2022-10-30T13:18:24.604Z,26.80
2022-10-30T13:21:04.597Z,26.80
2022-10-30T13:23:51.028Z,26.70
2022-10-30T13:26:44.278Z,26.70
2022-10-30T13:29:28.120Z,26.60
2022-10-30T13:32:32.799Z,26.60
2022-10-30T13:35:29.708Z,26.50
2022-10-30T13:38:06.579Z,26.50
2022-10-30T13:40:58.945Z,26.40
2022-10-30T13:43:29.992Z,26.30
2022-10-30T13:46:10.111Z,26.30
2022-10-30T13:48:45.549Z,26.20
2022-10-30T13:51:45.575Z,26.20
2022-10-30T13:54:23.471Z,26.10
2022-10-30T13:56:53.465Z,26.10
2022-10-30T13:59:42.732Z,26.00
2022-10-30T14:02:48.984Z,26.00
2022-10-30T14:06:09.564Z,25.90
2022-10-30T14:08:53.656Z,25.90
2022-10-30T14:11:21.021Z,25.90
2022-10-30T14:14:30.256Z,25.80
2022-10-30T14:17:14.384Z,25.80
2022-10-30T14:20:20.489Z,25.70
2022-10-30T14:23:20.075Z,25.70
2022-10-30T14:26:02.339Z,25.60
2022-10-30T14:28:37.580Z,25.60
2022-10-30T14:31:06.592Z,25.60
2022-10-30T14:33:47.157Z,25.50
2022-10-30T14:36:14.491Z,25.50
2022-10-30T14:38:41.801Z,25.50
2022-10-30T14:41:31.688Z,25.40
2022-10-30T14:44:23.720Z,25.40
2022-10-30T14:47:00.787Z,25.40
2022-10-30T14:49:46.291Z,25.30
2022-10-30T14:52:40.379Z,25.20
2022-10-30T14:55:40.158Z,25.20
2022-10-30T14:58:07.267Z,25.20
2022-10-30T15:00:35.019Z,25.10
2022-10-30T15:03:18.961Z,25.00
2022-10-30T15:06:01.645Z,25.00
2022-10-30T15:08:34.617Z,24.90
2022-10-30T15:11:17.652Z,24.80
2022-10-30T15:13:56.176Z,24.80
2022-10-30T15:16:27.285Z,24.70
2022-10-30T15:19:07.759Z,24.60
2022-10-30T15:21:52.785Z,24.60
2022-10-30T15:24:26.914Z,24.50
2022-10-30T15:27:00.457Z,24.40
2022-10-30T15:29:34.109Z,24.30
2022-10-30T15:32:02.450Z,24.30
2022-10-30T15:34:31.087Z,24.10
2022-10-30T15:36:58.060Z,24.10
2022-10-30T15:39:25.843Z,24.00
2022-10-30T15:42:02.623Z,23.90
2022-10-30T15:44:36.489Z,23.80
2022-10-30T15:47:05.818Z,23.70
2022-10-30T15:49:34.220Z,23.60
2022-10-30T15:52:15.786Z,23.50
2022-10-30T15:54:46.217Z,23.40
2022-10-30T15:58:01.106Z,23.30
2022-10-30T16:00:58.531Z,23.20
2022-10-30T16:03:26.833Z,23.10
2022-10-30T16:06:30.662Z,23.00
2022-10-30T16:08:58.140Z,22.90
2022-10-30T16:11:27.451Z,22.90
2022-10-30T16:13:54.677Z,22.80
2022-10-30T16:16:31.878Z,22.70
2022-10-30T16:19:02.791Z,22.60
2022-10-30T16:21:31.279Z,22.60
2022-10-30T16:24:04.566Z,22.50
2022-10-30T16:26:34.957Z,22.40
2022-10-30T16:29:17.105Z,22.40
2022-10-30T16:31:49.877Z,22.40
2022-10-30T16:34:31.852Z,22.20
2022-10-30T16:37:00.870Z,22.20
2022-10-30T16:39:28.991Z,22.10
2022-10-30T16:42:01.022Z,22.00
2022-10-30T16:44:31.024Z,22.00
2022-10-30T16:47:19.408Z,21.90
2022-10-30T16:49:57.374Z,21.90
2022-10-30T16:52:33.371Z,21.80
2022-10-30T16:55:04.835Z,21.80
2022-10-30T16:57:35.966Z,21.70
2022-10-30T17:00:05.567Z,21.60
2022-10-30T17:02:50.079Z,21.60
2022-10-30T17:05:34.755Z,21.50
2022-10-30T17:08:09.848Z,21.50
2022-10-30T17:10:37.112Z,21.40
2022-10-30T17:13:32.780Z,21.40
2022-10-30T17:16:12.138Z,21.30
2022-10-30T17:18:39.837Z,21.20
2022-10-30T17:21:13.888Z,21.20
2022-10-30T17:23:52.692Z,21.10
2022-10-30T17:26:20.730Z,21.00
2022-10-30T17:28:48.558Z,21.00
2022-10-30T17:31:18.604Z,21.00
2022-10-30T17:33:47.541Z,20.90
2022-10-30T17:36:14.525Z,20.90
2022-10-30T17:38:41.609Z,20.80
2022-10-30T17:41:13.928Z,20.80
2022-10-30T17:43:52.977Z,20.70
2022-10-30T17:46:20.830Z,20.70
2022-10-30T17:48:48.509Z,20.70
2022-10-30T17:51:17.034Z,20.60
2022-10-30T17:53:47.247Z,20.60
2022-10-30T17:56:21.675Z,20.60
2022-10-30T17:58:48.926Z,20.60
2022-10-30T18:01:22.705Z,20.60
2022-10-30T18:03:52.041Z,20.60
2022-10-30T18:06:21.901Z,20.60
2022-10-30T18:08:50.831Z,20.60
2022-10-30T18:11:20.437Z,20.60
2022-10-30T18:13:48.600Z,20.60
2022-10-30T18:16:17.046Z,20.60
2022-10-30T18:18:45.579Z,20.60
2022-10-30T18:21:17.548Z,20.60
2022-10-30T18:23:53.051Z,20.60
2022-10-30T18:26:25.860Z,20.60
2022-10-30T18:28:53.378Z,20.60
2022-10-30T18:31:23.738Z,20.60
2022-10-30T18:33:51.061Z,20.60
2022-10-30T18:36:21.110Z,20.60
2022-10-30T18:38:49.039Z,20.60
2022-10-30T18:41:36.506Z,20.50
2022-10-30T18:44:04.421Z,20.50
2022-10-30T18:46:33.038Z,20.40
2022-10-30T18:49:00.279Z,20.40
2022-10-30T18:51:28.607Z,20.40
2022-10-30T18:53:57.340Z,20.40
2022-10-30T18:56:27.787Z,20.40
2022-10-30T18:59:00.666Z,20.30
2022-10-30T19:01:30.915Z,20.30
2022-10-30T19:04:01.082Z,20.30
2022-10-30T19:06:28.289Z,20.20
2022-10-30T19:08:55.969Z,20.20
2022-10-30T19:11:25.281Z,20.20
2022-10-30T19:13:54.563Z,20.20
2022-10-30T19:16:25.540Z,20.10
2022-10-30T19:18:54.172Z,20.10
2022-10-30T19:21:25.490Z,20.10
2022-10-30T19:23:53.042Z,20.00
2022-10-30T19:26:20.312Z,20.00
2022-10-30T19:28:48.499Z,20.00
2022-10-30T19:31:18.983Z,19.90
2022-10-30T19:33:51.412Z,19.90
2022-10-30T19:36:33.798Z,19.90
2022-10-30T19:39:08.515Z,19.90
2022-10-30T19:41:36.985Z,19.90
2022-10-30T19:44:04.433Z,19.80
2022-10-30T19:46:31.410Z,19.80
2022-10-30T19:48:59.554Z,19.80
2022-10-30T19:51:28.588Z,19.80
2022-10-30T19:53:55.866Z,19.80
2022-10-30T19:56:22.842Z,19.70
2022-10-30T19:58:50.178Z,19.70
2022-10-30T20:01:17.370Z,19.70
2022-10-30T20:03:44.499Z,19.70
2022-10-30T20:06:14.960Z,19.60
2022-10-30T20:08:41.972Z,19.60
2022-10-30T20:11:09.321Z,19.60
2022-10-30T20:13:37.286Z,19.60
2022-10-30T20:16:05.644Z,19.60
2022-10-30T20:18:35.856Z,19.60
2022-10-30T20:21:05.608Z,19.50
2022-10-30T20:23:32.620Z,19.50
2022-10-30T20:26:11.948Z,19.50
2022-10-30T20:28:41.601Z,19.50
2022-10-30T20:31:12.834Z,19.50
2022-10-30T20:33:40.057Z,19.40
2022-10-30T20:36:07.294Z,19.40
2022-10-30T20:38:35.018Z,19.40
2022-10-30T20:41:04.009Z,19.40
2022-10-30T20:43:36.045Z,19.30
2022-10-30T20:46:05.026Z,19.30
2022-10-30T20:48:32.678Z,19.30
2022-10-30T20:51:01.799Z,19.30
2022-10-30T20:53:29.818Z,19.30
2022-10-30T20:55:56.880Z,19.30
2022-10-30T20:58:24.556Z,19.20
2022-10-30T21:00:55.672Z,19.20
2022-10-30T21:03:22.821Z,19.20
2022-10-30T21:05:56.105Z,19.20
2022-10-30T21:08:23.682Z,19.10
2022-10-30T21:10:50.629Z,19.10
2022-10-30T21:13:17.556Z,19.10
2022-10-30T21:15:45.085Z,19.10
2022-10-30T21:18:13.808Z,19.10
2022-10-30T21:20:41.247Z,19.10
2022-10-30T21:23:08.873Z,19.10
2022-10-30T21:25:36.398Z,19.10
2022-10-30T21:28:04.799Z,19.10
2022-10-30T21:30:32.766Z,19.10
2022-10-30T21:33:00.238Z,19.00
2022-10-30T21:35:28.115Z,19.00
2022-10-30T21:37:55.164Z,19.00
2022-10-30T21:40:22.205Z,19.00
2022-10-30T21:42:49.358Z,19.00
2022-10-30T21:45:16.466Z,18.90
2022-10-30T21:47:44.574Z,18.90
2022-10-30T21:50:12.761Z,18.90
2022-10-30T21:52:40.737Z,18.90
2022-10-30T21:55:08.739Z,18.80
2022-10-30T21:57:36.313Z,18.80
2022-10-30T22:00:06.354Z,18.80
2022-10-30T22:02:35.917Z,18.80
2022-10-30T22:05:04.903Z,18.80
2022-10-30T22:07:32.120Z,18.80
2022-10-30T22:09:59.913Z,18.80
2022-10-30T22:12:27.006Z,18.80
2022-10-30T22:14:53.991Z,18.80
2022-10-30T22:17:21.039Z,18.80
2022-10-30T22:19:48.222Z,18.80
2022-10-30T22:22:15.306Z,18.80
2022-10-30T22:24:42.449Z,18.80
2022-10-30T22:27:09.483Z,18.80
2022-10-30T22:29:36.585Z,18.80
2022-10-30T22:32:03.549Z,18.80
2022-10-30T22:34:30.501Z,18.70
2022-10-30T22:36:57.531Z,18.70
2022-10-30T22:39:24.894Z,18.70
2022-10-30T22:41:51.946Z,18.70
2022-10-30T22:44:19.703Z,18.70
2022-10-30T22:46:46.712Z,18.70
2022-10-30T22:49:13.615Z,18.70
2022-10-30T22:51:40.724Z,18.70
2022-10-30T22:54:11.270Z,18.70
2022-10-30T22:56:39.656Z,18.70
2022-10-30T22:59:14.246Z,18.70
2022-10-30T23:01:42.864Z,18.70
2022-10-30T23:04:11.394Z,18.70
2022-10-30T23:06:39.377Z,18.70
2022-10-30T23:09:11.458Z,18.60
2022-10-30T23:11:39.349Z,18.60
2022-10-30T23:14:06.606Z,18.60
2022-10-30T23:16:33.446Z,18.60
2022-10-30T23:19:01.355Z,18.60
2022-10-30T23:21:31.065Z,18.60
2022-10-30T23:23:58.751Z,18.60
2022-10-30T23:26:27.845Z,18.60
2022-10-30T23:28:56.398Z,18.60
2022-10-30T23:31:25.239Z,18.60
2022-10-30T23:33:54.075Z,18.60
2022-10-30T23:36:21.548Z,18.60
2022-10-30T23:38:56.479Z,18.70
2022-10-30T23:41:25.828Z,18.60
2022-10-30T23:43:57.383Z,18.60
2022-10-30T23:46:24.888Z,18.60
2022-10-30T23:48:52.413Z,18.60
2022-10-30T23:51:19.806Z,18.60
2022-10-30T23:53:47.104Z,18.60
2022-10-30T23:56:14.456Z,18.50
2022-10-30T23:58:45.752Z,18.50
